Sutherland Springs, Texas
Current Conditions -  °F | °C
As of 2:58 PM on Monday 24 Nov 2014 (Local Time) from KRND Reporting Station
Clear Clear  
Wind Chill: 64°   Ceiling: Unl
Heat Index: 64°   Visibility: 10mi
Dew Point: 27°   Wind: 12mph
Humidity: 24%   Direction: 330°NNW
Pressure: 30.04"   Gusts: NA
Location:  29.27°N, 98.06°W
Report Text: KRND 242058Z AUTO 33010KT 10SM CLR 18/M03 A3004 RMK AO2 SLP170 T01771030
Loading
Personal Weather Stations






























Interactive Weather Map New forecast layout! Learn more

10-Day Weather Forecast

Advertisements
Track Severe Weather on mobile